sensor_id;sensor_type;location;lat;lon;timestamp;P1;durP1;ratioP1;P2;durP2;ratioP2
19285;SDS011;9776;50.798;6.430;2022-10-16T00:01:13;1.90;;;1.80;;
19285;SDS011;9776;50.798;6.430;2022-10-16T00:03:41;1.95;;;1.85;;
19285;SDS011;9776;50.798;6.430;2022-10-16T00:06:09;1.88;;;1.77;;
19285;SDS011;9776;50.798;6.430;2022-10-16T00:08:37;1.75;;;1.52;;
19285;SDS011;9776;50.798;6.430;2022-10-16T00:11:04;1.75;;;1.65;;
19285;SDS011;9776;50.798;6.430;2022-10-16T00:13:33;2.25;;;2.15;;
19285;SDS011;9776;50.798;6.430;2022-10-16T00:16:03;2.33;;;2.13;;
19285;SDS011;9776;50.798;6.430;2022-10-16T00:18:31;1.80;;;1.70;;
19285;SDS011;9776;50.798;6.430;2022-10-16T00:21:01;2.10;;;2.00;;
19285;SDS011;9776;50.798;6.430;2022-10-16T00:23:29;2.08;;;1.98;;
19285;SDS011;9776;50.798;6.430;2022-10-16T00:25:55;2.03;;;1.92;;
19285;SDS011;9776;50.798;6.430;2022-10-16T00:28:23;1.70;;;1.60;;
19285;SDS011;9776;50.798;6.430;2022-10-16T00:30:50;1.95;;;1.85;;
19285;SDS011;9776;50.798;6.430;2022-10-16T00:33:18;1.83;;;1.73;;
19285;SDS011;9776;50.798;6.430;2022-10-16T00:35:45;2.22;;;2.13;;
19285;SDS011;9776;50.798;6.430;2022-10-16T00:38:12;2.05;;;1.95;;
19285;SDS011;9776;50.798;6.430;2022-10-16T00:40:39;1.77;;;1.63;;
19285;SDS011;9776;50.798;6.430;2022-10-16T00:43:09;1.90;;;1.80;;
19285;SDS011;9776;50.798;6.430;2022-10-16T00:45:58;1.85;;;1.75;;
19285;SDS011;9776;50.798;6.430;2022-10-16T00:48:27;2.75;;;1.80;;
19285;SDS011;9776;50.798;6.430;2022-10-16T00:50:54;2.00;;;1.90;;
19285;SDS011;9776;50.798;6.430;2022-10-16T00:53:22;2.08;;;1.98;;
19285;SDS011;9776;50.798;6.430;2022-10-16T00:55:50;1.67;;;1.58;;
19285;SDS011;9776;50.798;6.430;2022-10-16T00:58:17;1.80;;;1.70;;
19285;SDS011;9776;50.798;6.430;2022-10-16T01:00:44;1.85;;;1.75;;
19285;SDS011;9776;50.798;6.430;2022-10-16T01:03:22;1.90;;;1.80;;
19285;SDS011;9776;50.798;6.430;2022-10-16T01:05:54;2.00;;;1.90;;
19285;SDS011;9776;50.798;6.430;2022-10-16T01:08:34;1.90;;;1.80;;
19285;SDS011;9776;50.798;6.430;2022-10-16T01:11:11;1.45;;;1.45;;
19285;SDS011;9776;50.798;6.430;2022-10-16T01:13:42;2.00;;;1.90;;
19285;SDS011;9776;50.798;6.430;2022-10-16T01:16:13;2.00;;;1.90;;
19285;SDS011;9776;50.798;6.430;2022-10-16T01:18:46;1.90;;;1.80;;
19285;SDS011;9776;50.798;6.430;2022-10-16T01:21:21;1.80;;;1.70;;
19285;SDS011;9776;50.798;6.430;2022-10-16T01:23:51;1.70;;;1.60;;
19285;SDS011;9776;50.798;6.430;2022-10-16T01:26:31;1.90;;;1.80;;
19285;SDS011;9776;50.798;6.430;2022-10-16T01:29:12;2.10;;;2.00;;
19285;SDS011;9776;50.798;6.430;2022-10-16T01:31:44;1.40;;;1.40;;
19285;SDS011;9776;50.798;6.430;2022-10-16T01:34:16;1.48;;;1.48;;
19285;SDS011;9776;50.798;6.430;2022-10-16T01:36:50;1.80;;;1.70;;
19285;SDS011;9776;50.798;6.430;2022-10-16T01:39:20;2.30;;;2.20;;
19285;SDS011;9776;50.798;6.430;2022-10-16T01:41:50;1.80;;;1.70;;
19285;SDS011;9776;50.798;6.430;2022-10-16T01:44:22;1.80;;;1.70;;
19285;SDS011;9776;50.798;6.430;2022-10-16T01:46:52;1.70;;;1.60;;
19285;SDS011;9776;50.798;6.430;2022-10-16T01:49:20;1.58;;;1.52;;
19285;SDS011;9776;50.798;6.430;2022-10-16T01:51:49;1.75;;;1.65;;
19285;SDS011;9776;50.798;6.430;2022-10-16T01:54:20;1.65;;;1.55;;
19285;SDS011;9776;50.798;6.430;2022-10-16T01:56:49;1.70;;;1.60;;
19285;SDS011;9776;50.798;6.430;2022-10-16T01:59:18;2.03;;;1.92;;
19285;SDS011;9776;50.798;6.430;2022-10-16T02:01:50;2.10;;;2.00;;
19285;SDS011;9776;50.798;6.430;2022-10-16T02:04:20;1.70;;;1.60;;
19285;SDS011;9776;50.798;6.430;2022-10-16T02:06:50;1.80;;;1.70;;
19285;SDS011;9776;50.798;6.430;2022-10-16T02:09:18;1.55;;;1.45;;
19285;SDS011;9776;50.798;6.430;2022-10-16T02:11:44;1.55;;;1.52;;
19285;SDS011;9776;50.798;6.430;2022-10-16T02:14:11;1.85;;;1.75;;
19285;SDS011;9776;50.798;6.430;2022-10-16T02:16:39;1.73;;;1.63;;
19285;SDS011;9776;50.798;6.430;2022-10-16T02:19:08;1.67;;;1.65;;
19285;SDS011;9776;50.798;6.430;2022-10-16T02:21:38;1.70;;;1.60;;
19285;SDS011;9776;50.798;6.430;2022-10-16T02:24:08;1.40;;;1.40;;
19285;SDS011;9776;50.798;6.430;2022-10-16T02:26:45;1.70;;;1.60;;
19285;SDS011;9776;50.798;6.430;2022-10-16T02:29:20;1.88;;;1.77;;
19285;SDS011;9776;50.798;6.430;2022-10-16T02:31:52;1.80;;;1.73;;
19285;SDS011;9776;50.798;6.430;2022-10-16T02:34:23;1.70;;;1.60;;
19285;SDS011;9776;50.798;6.430;2022-10-16T02:36:53;2.00;;;1.90;;
19285;SDS011;9776;50.798;6.430;2022-10-16T02:39:21;1.75;;;1.65;;
19285;SDS011;9776;50.798;6.430;2022-10-16T02:41:48;1.70;;;1.60;;
19285;SDS011;9776;50.798;6.430;2022-10-16T02:44:15;2.00;;;1.90;;
19285;SDS011;9776;50.798;6.430;2022-10-16T02:46:41;1.55;;;1.48;;
19285;SDS011;9776;50.798;6.430;2022-10-16T02:49:08;1.95;;;1.85;;
19285;SDS011;9776;50.798;6.430;2022-10-16T02:51:36;1.30;;;1.30;;
19285;SDS011;9776;50.798;6.430;2022-10-16T02:54:03;2.00;;;1.90;;
19285;SDS011;9776;50.798;6.430;2022-10-16T02:56:29;1.80;;;1.70;;
19285;SDS011;9776;50.798;6.430;2022-10-16T02:58:56;1.55;;;1.45;;
19285;SDS011;9776;50.798;6.430;2022-10-16T03:01:23;1.48;;;1.45;;
19285;SDS011;9776;50.798;6.430;2022-10-16T03:03:50;1.60;;;1.50;;
19285;SDS011;9776;50.798;6.430;2022-10-16T03:06:16;1.80;;;1.70;;
19285;SDS011;9776;50.798;6.430;2022-10-16T03:08:44;1.50;;;1.50;;
19285;SDS011;9776;50.798;6.430;2022-10-16T03:11:11;1.50;;;1.48;;
19285;SDS011;9776;50.798;6.430;2022-10-16T03:13:37;1.83;;;1.73;;
19285;SDS011;9776;50.798;6.430;2022-10-16T03:16:04;1.77;;;1.67;;
19285;SDS011;9776;50.798;6.430;2022-10-16T03:18:30;1.58;;;1.48;;
19285;SDS011;9776;50.798;6.430;2022-10-16T03:20:57;1.85;;;1.75;;
19285;SDS011;9776;50.798;6.430;2022-10-16T03:23:23;1.67;;;1.58;;
19285;SDS011;9776;50.798;6.430;2022-10-16T03:25:51;1.80;;;1.70;;
19285;SDS011;9776;50.798;6.430;2022-10-16T03:28:18;1.73;;;1.63;;
19285;SDS011;9776;50.798;6.430;2022-10-16T03:30:45;1.45;;;1.45;;
19285;SDS011;9776;50.798;6.430;2022-10-16T03:33:12;1.48;;;1.48;;
19285;SDS011;9776;50.798;6.430;2022-10-16T03:35:38;1.63;;;1.60;;
19285;SDS011;9776;50.798;6.430;2022-10-16T03:38:05;1.55;;;1.40;;
19285;SDS011;9776;50.798;6.430;2022-10-16T03:40:32;1.80;;;1.70;;
19285;SDS011;9776;50.798;6.430;2022-10-16T03:43:00;1.50;;;1.40;;
19285;SDS011;9776;50.798;6.430;2022-10-16T03:45:26;1.60;;;1.50;;
19285;SDS011;9776;50.798;6.430;2022-10-16T03:47:53;1.52;;;1.52;;
19285;SDS011;9776;50.798;6.430;2022-10-16T03:50:19;1.60;;;1.58;;
19285;SDS011;9776;50.798;6.430;2022-10-16T03:52:46;1.40;;;1.30;;
19285;SDS011;9776;50.798;6.430;2022-10-16T03:55:13;2.08;;;1.60;;
19285;SDS011;9776;50.798;6.430;2022-10-16T03:57:39;1.65;;;1.55;;
19285;SDS011;9776;50.798;6.430;2022-10-16T04:00:08;1.90;;;1.80;;
19285;SDS011;9776;50.798;6.430;2022-10-16T04:02:36;1.70;;;1.60;;
19285;SDS011;9776;50.798;6.430;2022-10-16T04:05:02;1.70;;;1.60;;
19285;SDS011;9776;50.798;6.430;2022-10-16T04:07:29;1.63;;;1.52;;
19285;SDS011;9776;50.798;6.430;2022-10-16T04:09:56;1.70;;;1.60;;
19285;SDS011;9776;50.798;6.430;2022-10-16T04:12:23;1.60;;;1.60;;
19285;SDS011;9776;50.798;6.430;2022-10-16T04:14:50;1.30;;;1.30;;
19285;SDS011;9776;50.798;6.430;2022-10-16T04:17:18;2.90;;;1.67;;
19285;SDS011;9776;50.798;6.430;2022-10-16T04:19:44;1.65;;;1.55;;
19285;SDS011;9776;50.798;6.430;2022-10-16T04:22:11;1.77;;;1.67;;
19285;SDS011;9776;50.798;6.430;2022-10-16T04:24:38;1.80;;;1.70;;
19285;SDS011;9776;50.798;6.430;2022-10-16T04:27:04;1.58;;;1.58;;
19285;SDS011;9776;50.798;6.430;2022-10-16T04:29:31;1.48;;;1.48;;
19285;SDS011;9776;50.798;6.430;2022-10-16T04:31:58;2.08;;;1.98;;
19285;SDS011;9776;50.798;6.430;2022-10-16T04:34:26;1.98;;;1.88;;
19285;SDS011;9776;50.798;6.430;2022-10-16T04:36:52;1.90;;;1.80;;
19285;SDS011;9776;50.798;6.430;2022-10-16T04:39:19;1.70;;;1.60;;
19285;SDS011;9776;50.798;6.430;2022-10-16T04:41:45;2.03;;;1.88;;
19285;SDS011;9776;50.798;6.430;2022-10-16T04:44:12;1.90;;;1.80;;
19285;SDS011;9776;50.798;6.430;2022-10-16T04:46:39;2.10;;;2.00;;
19285;SDS011;9776;50.798;6.430;2022-10-16T04:49:05;2.10;;;2.00;;
19285;SDS011;9776;50.798;6.430;2022-10-16T04:51:33;2.17;;;2.08;;
19285;SDS011;9776;50.798;6.430;2022-10-16T04:54:00;2.17;;;2.08;;
19285;SDS011;9776;50.798;6.430;2022-10-16T04:56:27;2.03;;;1.92;;
19285;SDS011;9776;50.798;6.430;2022-10-16T04:58:53;1.92;;;1.83;;
19285;SDS011;9776;50.798;6.430;2022-10-16T05:01:20;1.95;;;1.85;;
19285;SDS011;9776;50.798;6.430;2022-10-16T05:03:46;2.30;;;2.20;;
19285;SDS011;9776;50.798;6.430;2022-10-16T05:06:13;2.00;;;1.90;;
19285;SDS011;9776;50.798;6.430;2022-10-16T05:08:41;2.03;;;1.92;;
19285;SDS011;9776;50.798;6.430;2022-10-16T05:11:08;2.08;;;1.98;;
19285;SDS011;9776;50.798;6.430;2022-10-16T05:13:34;2.17;;;2.08;;
19285;SDS011;9776;50.798;6.430;2022-10-16T05:16:01;2.22;;;2.13;;
19285;SDS011;9776;50.798;6.430;2022-10-16T05:18:27;2.30;;;2.20;;
19285;SDS011;9776;50.798;6.430;2022-10-16T05:20:54;2.30;;;2.20;;
19285;SDS011;9776;50.798;6.430;2022-10-16T05:23:21;2.05;;;1.95;;
19285;SDS011;9776;50.798;6.430;2022-10-16T05:25:53;2.03;;;1.92;;
19285;SDS011;9776;50.798;6.430;2022-10-16T05:28:20;2.10;;;2.00;;
19285;SDS011;9776;50.798;6.430;2022-10-16T05:30:47;1.83;;;1.73;;
19285;SDS011;9776;50.798;6.430;2022-10-16T05:33:14;2.13;;;2.03;;
19285;SDS011;9776;50.798;6.430;2022-10-16T05:35:40;1.98;;;1.88;;
19285;SDS011;9776;50.798;6.430;2022-10-16T05:38:07;2.13;;;2.03;;
19285;SDS011;9776;50.798;6.430;2022-10-16T05:40:34;2.20;;;2.10;;
19285;SDS011;9776;50.798;6.430;2022-10-16T05:43:02;2.03;;;1.92;;
19285;SDS011;9776;50.798;6.430;2022-10-16T05:45:28;1.90;;;1.80;;
19285;SDS011;9776;50.798;6.430;2022-10-16T05:47:55;2.47;;;2.38;;
19285;SDS011;9776;50.798;6.430;2022-10-16T05:50:21;2.28;;;2.15;;
19285;SDS011;9776;50.798;6.430;2022-10-16T05:52:48;2.20;;;2.10;;
19285;SDS011;9776;50.798;6.430;2022-10-16T05:55:15;2.20;;;2.10;;
19285;SDS011;9776;50.798;6.430;2022-10-16T05:57:41;2.45;;;2.35;;
19285;SDS011;9776;50.798;6.430;2022-10-16T06:00:10;2.70;;;2.50;;
19285;SDS011;9776;50.798;6.430;2022-10-16T06:02:37;2.75;;;2.28;;
19285;SDS011;9776;50.798;6.430;2022-10-16T06:05:04;2.40;;;2.30;;
19285;SDS011;9776;50.798;6.430;2022-10-16T06:07:33;2.35;;;2.25;;
19285;SDS011;9776;50.798;6.430;2022-10-16T06:10:00;2.40;;;2.30;;
19285;SDS011;9776;50.798;6.430;2022-10-16T06:12:26;2.42;;;2.20;;
19285;SDS011;9776;50.798;6.430;2022-10-16T06:14:53;2.42;;;2.33;;
19285;SDS011;9776;50.798;6.430;2022-10-16T06:17:21;2.13;;;2.03;;
19285;SDS011;9776;50.798;6.430;2022-10-16T06:19:48;2.20;;;2.10;;
19285;SDS011;9776;50.798;6.430;2022-10-16T06:22:14;2.40;;;2.25;;
19285;SDS011;9776;50.798;6.430;2022-10-16T06:24:41;2.22;;;2.03;;
19285;SDS011;9776;50.798;6.430;2022-10-16T06:27:07;2.13;;;2.03;;
19285;SDS011;9776;50.798;6.430;2022-10-16T06:29:34;1.92;;;1.83;;
19285;SDS011;9776;50.798;6.430;2022-10-16T06:32:01;2.20;;;2.10;;
19285;SDS011;9776;50.798;6.430;2022-10-16T06:34:29;3.08;;;2.58;;
19285;SDS011;9776;50.798;6.430;2022-10-16T06:36:55;2.03;;;1.92;;
19285;SDS011;9776;50.798;6.430;2022-10-16T06:39:22;2.60;;;2.50;;
19285;SDS011;9776;50.798;6.430;2022-10-16T06:41:48;2.72;;;2.47;;
19285;SDS011;9776;50.798;6.430;2022-10-16T06:44:15;2.50;;;2.35;;
19285;SDS011;9776;50.798;6.430;2022-10-16T06:46:42;2.35;;;2.25;;
19285;SDS011;9776;50.798;6.430;2022-10-16T06:49:08;2.70;;;2.50;;
19285;SDS011;9776;50.798;6.430;2022-10-16T06:51:36;2.42;;;2.33;;
19285;SDS011;9776;50.798;6.430;2022-10-16T06:54:06;2.10;;;2.00;;
19285;SDS011;9776;50.798;6.430;2022-10-16T06:56:33;2.42;;;2.28;;
19285;SDS011;9776;50.798;6.430;2022-10-16T06:59:00;2.40;;;2.20;;
19285;SDS011;9776;50.798;6.430;2022-10-16T07:01:28;2.00;;;1.90;;
19285;SDS011;9776;50.798;6.430;2022-10-16T07:03:55;1.92;;;1.83;;
19285;SDS011;9776;50.798;6.430;2022-10-16T07:06:23;2.20;;;2.00;;
19285;SDS011;9776;50.798;6.430;2022-10-16T07:08:53;1.98;;;1.88;;
19285;SDS011;9776;50.798;6.430;2022-10-16T07:11:21;1.75;;;1.65;;
19285;SDS011;9776;50.798;6.430;2022-10-16T07:13:49;1.90;;;1.80;;
19285;SDS011;9776;50.798;6.430;2022-10-16T07:16:17;1.95;;;1.85;;
19285;SDS011;9776;50.798;6.430;2022-10-16T07:18:45;1.63;;;1.63;;
19285;SDS011;9776;50.798;6.430;2022-10-16T07:21:14;1.90;;;1.60;;
19285;SDS011;9776;50.798;6.430;2022-10-16T07:23:42;1.58;;;1.50;;
19285;SDS011;9776;50.798;6.430;2022-10-16T07:26:11;1.88;;;1.77;;
19285;SDS011;9776;50.798;6.430;2022-10-16T07:28:37;1.88;;;1.77;;
19285;SDS011;9776;50.798;6.430;2022-10-16T07:31:05;1.70;;;1.60;;
19285;SDS011;9776;50.798;6.430;2022-10-16T07:33:35;2.05;;;1.95;;
19285;SDS011;9776;50.798;6.430;2022-10-16T07:36:03;1.88;;;1.77;;
19285;SDS011;9776;50.798;6.430;2022-10-16T07:38:30;1.52;;;1.42;;
19285;SDS011;9776;50.798;6.430;2022-10-16T07:40:56;2.10;;;2.00;;
19285;SDS011;9776;50.798;6.430;2022-10-16T07:43:25;2.20;;;2.00;;
19285;SDS011;9776;50.798;6.430;2022-10-16T07:45:53;1.65;;;1.55;;
19285;SDS011;9776;50.798;6.430;2022-10-16T07:48:20;1.48;;;1.38;;
19285;SDS011;9776;50.798;6.430;2022-10-16T07:50:48;1.77;;;1.67;;
19285;SDS011;9776;50.798;6.430;2022-10-16T07:53:14;1.75;;;1.65;;
19285;SDS011;9776;50.798;6.430;2022-10-16T07:55:41;1.98;;;1.88;;
19285;SDS011;9776;50.798;6.430;2022-10-16T07:58:08;1.80;;;1.70;;
19285;SDS011;9776;50.798;6.430;2022-10-16T08:00:36;1.73;;;1.63;;
19285;SDS011;9776;50.798;6.430;2022-10-16T08:03:03;1.70;;;1.60;;
19285;SDS011;9776;50.798;6.430;2022-10-16T08:05:31;1.90;;;1.80;;
19285;SDS011;9776;50.798;6.430;2022-10-16T08:07:59;1.67;;;1.50;;
19285;SDS011;9776;50.798;6.430;2022-10-16T08:10:26;1.70;;;1.60;;
19285;SDS011;9776;50.798;6.430;2022-10-16T08:12:54;1.88;;;1.77;;
19285;SDS011;9776;50.798;6.430;2022-10-16T08:15:21;1.70;;;1.60;;
19285;SDS011;9776;50.798;6.430;2022-10-16T08:17:55;1.48;;;1.38;;
19285;SDS011;9776;50.798;6.430;2022-10-16T08:20:22;1.75;;;1.65;;
19285;SDS011;9776;50.798;6.430;2022-10-16T08:22:49;1.77;;;1.73;;
19285;SDS011;9776;50.798;6.430;2022-10-16T08:25:16;1.83;;;1.73;;
19285;SDS011;9776;50.798;6.430;2022-10-16T08:27:42;2.20;;;2.10;;
19285;SDS011;9776;50.798;6.430;2022-10-16T08:30:10;2.13;;;2.03;;
19285;SDS011;9776;50.798;6.430;2022-10-16T08:32:37;2.80;;;2.70;;
19285;SDS011;9776;50.798;6.430;2022-10-16T08:35:05;2.53;;;2.33;;
19285;SDS011;9776;50.798;6.430;2022-10-16T08:37:32;2.53;;;2.42;;
19285;SDS011;9776;50.798;6.430;2022-10-16T08:39:58;2.75;;;2.65;;
19285;SDS011;9776;50.798;6.430;2022-10-16T08:42:29;2.42;;;2.33;;
19285;SDS011;9776;50.798;6.430;2022-10-16T08:45:12;2.17;;;2.08;;
19285;SDS011;9776;50.798;6.430;2022-10-16T08:47:53;1.92;;;1.83;;
19285;SDS011;9776;50.798;6.430;2022-10-16T08:50:30;1.83;;;1.73;;
19285;SDS011;9776;50.798;6.430;2022-10-16T08:52:59;1.40;;;1.30;;
19285;SDS011;9776;50.798;6.430;2022-10-16T08:55:30;1.50;;;1.40;;
19285;SDS011;9776;50.798;6.430;2022-10-16T08:58:00;1.35;;;1.35;;
19285;SDS011;9776;50.798;6.430;2022-10-16T09:00:27;1.50;;;1.40;;
19285;SDS011;9776;50.798;6.430;2022-10-16T09:02:56;1.85;;;1.65;;
19285;SDS011;9776;50.798;6.430;2022-10-16T09:05:37;1.33;;;1.33;;
19285;SDS011;9776;50.798;6.430;2022-10-16T09:08:19;2.08;;;1.98;;
19285;SDS011;9776;50.798;6.430;2022-10-16T09:10:56;1.70;;;1.60;;
19285;SDS011;9776;50.798;6.430;2022-10-16T09:13:26;1.95;;;1.85;;
19285;SDS011;9776;50.798;6.430;2022-10-16T09:15:58;1.10;;;1.10;;
19285;SDS011;9776;50.798;6.430;2022-10-16T09:18:37;1.08;;;1.08;;
19285;SDS011;9776;50.798;6.430;2022-10-16T09:21:14;1.30;;;1.30;;
19285;SDS011;9776;50.798;6.430;2022-10-16T09:23:44;3.05;;;1.20;;
19285;SDS011;9776;50.798;6.430;2022-10-16T09:26:13;1.23;;;1.23;;
19285;SDS011;9776;50.798;6.430;2022-10-16T09:28:43;1.17;;;1.13;;
19285;SDS011;9776;50.798;6.430;2022-10-16T09:31:15;1.40;;;1.40;;
19285;SDS011;9776;50.798;6.430;2022-10-16T09:33:45;1.63;;;1.52;;
19285;SDS011;9776;50.798;6.430;2022-10-16T09:36:16;1.65;;;1.55;;
19285;SDS011;9776;50.798;6.430;2022-10-16T09:38:43;1.30;;;1.30;;
19285;SDS011;9776;50.798;6.430;2022-10-16T09:41:13;1.58;;;1.50;;
19285;SDS011;9776;50.798;6.430;2022-10-16T09:43:46;1.52;;;1.50;;
19285;SDS011;9776;50.798;6.430;2022-10-16T09:46:25;1.40;;;1.38;;
19285;SDS011;9776;50.798;6.430;2022-10-16T09:48:54;1.35;;;1.27;;
19285;SDS011;9776;50.798;6.430;2022-10-16T09:51:25;1.13;;;1.13;;
19285;SDS011;9776;50.798;6.430;2022-10-16T09:53:57;1.55;;;1.48;;
19285;SDS011;9776;50.798;6.430;2022-10-16T09:56:26;1.58;;;1.58;;
19285;SDS011;9776;50.798;6.430;2022-10-16T09:58:55;1.50;;;1.48;;
19285;SDS011;9776;50.798;6.430;2022-10-16T10:01:24;1.25;;;1.15;;
19285;SDS011;9776;50.798;6.430;2022-10-16T10:03:56;1.50;;;1.40;;
19285;SDS011;9776;50.798;6.430;2022-10-16T10:06:28;1.23;;;1.13;;
19285;SDS011;9776;50.798;6.430;2022-10-16T10:08:58;0.98;;;0.98;;
19285;SDS011;9776;50.798;6.430;2022-10-16T10:11:38;1.13;;;1.13;;
19285;SDS011;9776;50.798;6.430;2022-10-16T10:14:15;0.85;;;0.85;;
19285;SDS011;9776;50.798;6.430;2022-10-16T10:16:46;0.80;;;0.80;;
19285;SDS011;9776;50.798;6.430;2022-10-16T10:19:14;2.25;;;1.02;;
19285;SDS011;9776;50.798;6.430;2022-10-16T10:21:43;1.10;;;1.00;;
19285;SDS011;9776;50.798;6.430;2022-10-16T10:24:11;1.23;;;1.13;;
19285;SDS011;9776;50.798;6.430;2022-10-16T10:26:41;0.90;;;0.90;;
19285;SDS011;9776;50.798;6.430;2022-10-16T10:29:17;1.80;;;1.00;;
19285;SDS011;9776;50.798;6.430;2022-10-16T10:31:55;1.00;;;1.00;;
19285;SDS011;9776;50.798;6.430;2022-10-16T10:34:35;1.42;;;1.33;;
19285;SDS011;9776;50.798;6.430;2022-10-16T10:37:15;0.80;;;0.80;;
19285;SDS011;9776;50.798;6.430;2022-10-16T10:39:57;0.80;;;0.80;;
19285;SDS011;9776;50.798;6.430;2022-10-16T10:42:34;1.08;;;0.98;;
19285;SDS011;9776;50.798;6.430;2022-10-16T10:45:16;0.70;;;0.70;;
19285;SDS011;9776;50.798;6.430;2022-10-16T10:47:52;1.13;;;1.02;;
19285;SDS011;9776;50.798;6.430;2022-10-16T10:50:47;0.90;;;0.90;;
19285;SDS011;9776;50.798;6.430;2022-10-16T10:53:24;0.70;;;0.70;;
19285;SDS011;9776;50.798;6.430;2022-10-16T10:56:06;0.80;;;0.80;;
19285;SDS011;9776;50.798;6.430;2022-10-16T10:58:49;1.10;;;1.00;;
19285;SDS011;9776;50.798;6.430;2022-10-16T11:01:26;1.15;;;1.00;;
19285;SDS011;9776;50.798;6.430;2022-10-16T11:04:11;0.93;;;0.90;;
19285;SDS011;9776;50.798;6.430;2022-10-16T11:06:52;1.00;;;1.00;;
19285;SDS011;9776;50.798;6.430;2022-10-16T11:09:25;0.82;;;0.82;;
19285;SDS011;9776;50.798;6.430;2022-10-16T11:11:59;0.70;;;0.70;;
19285;SDS011;9776;50.798;6.430;2022-10-16T11:14:33;0.77;;;0.77;;
19285;SDS011;9776;50.798;6.430;2022-10-16T11:17:04;1.05;;;1.00;;
19285;SDS011;9776;50.798;6.430;2022-10-16T11:19:35;0.90;;;0.90;;
19285;SDS011;9776;50.798;6.430;2022-10-16T11:22:08;0.80;;;0.80;;
19285;SDS011;9776;50.798;6.430;2022-10-16T11:24:42;0.80;;;0.80;;
19285;SDS011;9776;50.798;6.430;2022-10-16T11:27:15;0.77;;;0.77;;
19285;SDS011;9776;50.798;6.430;2022-10-16T11:29:47;1.35;;;0.90;;
19285;SDS011;9776;50.798;6.430;2022-10-16T11:32:21;1.00;;;1.00;;
19285;SDS011;9776;50.798;6.430;2022-10-16T11:34:53;0.82;;;0.82;;
19285;SDS011;9776;50.798;6.430;2022-10-16T11:37:27;0.80;;;0.80;;
19285;SDS011;9776;50.798;6.430;2022-10-16T11:40:09;0.70;;;0.70;;
19285;SDS011;9776;50.798;6.430;2022-10-16T11:42:46;0.73;;;0.73;;
19285;SDS011;9776;50.798;6.430;2022-10-16T11:45:22;0.70;;;0.70;;
19285;SDS011;9776;50.798;6.430;2022-10-16T11:47:57;0.85;;;0.85;;
19285;SDS011;9776;50.798;6.430;2022-10-16T11:50:29;1.10;;;0.77;;
19285;SDS011;9776;50.798;6.430;2022-10-16T11:53:01;1.27;;;0.80;;
19285;SDS011;9776;50.798;6.430;2022-10-16T11:55:38;0.60;;;0.60;;
19285;SDS011;9776;50.798;6.430;2022-10-16T11:58:07;0.90;;;0.82;;
19285;SDS011;9776;50.798;6.430;2022-10-16T12:00:40;0.88;;;0.88;;
19285;SDS011;9776;50.798;6.430;2022-10-16T12:03:14;0.80;;;0.80;;
19285;SDS011;9776;50.798;6.430;2022-10-16T12:05:57;1.08;;;0.90;;
19285;SDS011;9776;50.798;6.430;2022-10-16T12:08:33;0.80;;;0.80;;
19285;SDS011;9776;50.798;6.430;2022-10-16T12:11:09;0.98;;;0.98;;
19285;SDS011;9776;50.798;6.430;2022-10-16T12:13:49;0.90;;;0.90;;
19285;SDS011;9776;50.798;6.430;2022-10-16T12:16:20;1.05;;;0.85;;
19285;SDS011;9776;50.798;6.430;2022-10-16T12:18:49;0.85;;;0.85;;
19285;SDS011;9776;50.798;6.430;2022-10-16T12:21:35;0.90;;;0.90;;
19285;SDS011;9776;50.798;6.430;2022-10-16T12:24:02;0.82;;;0.82;;
19285;SDS011;9776;50.798;6.430;2022-10-16T12:26:32;0.80;;;0.80;;
19285;SDS011;9776;50.798;6.430;2022-10-16T12:29:11;0.93;;;0.93;;
19285;SDS011;9776;50.798;6.430;2022-10-16T12:31:43;1.58;;;1.48;;
19285;SDS011;9776;50.798;6.430;2022-10-16T12:34:14;0.80;;;0.80;;
19285;SDS011;9776;50.798;6.430;2022-10-16T12:36:49;0.70;;;0.70;;
19285;SDS011;9776;50.798;6.430;2022-10-16T12:39:20;0.90;;;0.90;;
19285;SDS011;9776;50.798;6.430;2022-10-16T12:41:53;1.60;;;1.50;;
19285;SDS011;9776;50.798;6.430;2022-10-16T12:44:27;0.70;;;0.70;;
19285;SDS011;9776;50.798;6.430;2022-10-16T12:46:59;0.82;;;0.82;;
19285;SDS011;9776;50.798;6.430;2022-10-16T12:49:30;0.80;;;0.77;;
19285;SDS011;9776;50.798;6.430;2022-10-16T12:52:01;0.77;;;0.77;;
19285;SDS011;9776;50.798;6.430;2022-10-16T12:54:29;0.90;;;0.90;;
19285;SDS011;9776;50.798;6.430;2022-10-16T12:57:12;0.77;;;0.77;;
19285;SDS011;9776;50.798;6.430;2022-10-16T12:59:53;0.90;;;0.90;;
19285;SDS011;9776;50.798;6.430;2022-10-16T13:02:39;0.80;;;0.80;;
19285;SDS011;9776;50.798;6.430;2022-10-16T13:05:23;0.80;;;0.80;;
19285;SDS011;9776;50.798;6.430;2022-10-16T13:08:01;0.90;;;0.90;;
19285;SDS011;9776;50.798;6.430;2022-10-16T13:10:44;0.70;;;0.70;;
19285;SDS011;9776;50.798;6.430;2022-10-16T13:13:29;0.70;;;0.70;;
19285;SDS011;9776;50.798;6.430;2022-10-16T13:16:19;0.80;;;0.80;;
19285;SDS011;9776;50.798;6.430;2022-10-16T13:18:57;0.70;;;0.70;;
19285;SDS011;9776;50.798;6.430;2022-10-16T13:21:38;0.90;;;0.90;;
19285;SDS011;9776;50.798;6.430;2022-10-16T13:24:15;0.70;;;0.70;;
19285;SDS011;9776;50.798;6.430;2022-10-16T13:26:53;0.70;;;0.70;;
19285;SDS011;9776;50.798;6.430;2022-10-16T13:29:25;0.65;;;0.65;;
19285;SDS011;9776;50.798;6.430;2022-10-16T13:31:56;1.40;;;0.80;;
19285;SDS011;9776;50.798;6.430;2022-10-16T13:34:24;2.35;;;1.02;;
19285;SDS011;9776;50.798;6.430;2022-10-16T13:36:51;0.70;;;0.70;;
19285;SDS011;9776;50.798;6.430;2022-10-16T13:39:21;0.73;;;0.73;;
19285;SDS011;9776;50.798;6.430;2022-10-16T13:42:02;1.00;;;1.00;;
19285;SDS011;9776;50.798;6.430;2022-10-16T13:44:34;1.00;;;0.98;;
19285;SDS011;9776;50.798;6.430;2022-10-16T13:47:10;0.90;;;0.90;;
19285;SDS011;9776;50.798;6.430;2022-10-16T13:49:42;0.82;;;0.82;;
19285;SDS011;9776;50.798;6.430;2022-10-16T13:52:16;0.60;;;0.60;;
19285;SDS011;9776;50.798;6.430;2022-10-16T13:54:43;0.70;;;0.70;;
19285;SDS011;9776;50.798;6.430;2022-10-16T13:57:11;0.65;;;0.65;;
19285;SDS011;9776;50.798;6.430;2022-10-16T13:59:41;0.68;;;0.68;;
19285;SDS011;9776;50.798;6.430;2022-10-16T14:02:10;0.70;;;0.70;;
19285;SDS011;9776;50.798;6.430;2022-10-16T14:04:46;0.60;;;0.60;;
19285;SDS011;9776;50.798;6.430;2022-10-16T14:07:14;0.70;;;0.70;;
19285;SDS011;9776;50.798;6.430;2022-10-16T14:09:47;0.70;;;0.70;;
19285;SDS011;9776;50.798;6.430;2022-10-16T14:12:16;0.68;;;0.68;;
19285;SDS011;9776;50.798;6.430;2022-10-16T14:14:44;0.77;;;0.77;;
19285;SDS011;9776;50.798;6.430;2022-10-16T14:17:13;0.90;;;0.90;;
19285;SDS011;9776;50.798;6.430;2022-10-16T14:19:44;0.68;;;0.68;;
19285;SDS011;9776;50.798;6.430;2022-10-16T14:22:20;0.57;;;0.57;;
19285;SDS011;9776;50.798;6.430;2022-10-16T14:24:52;0.70;;;0.70;;
19285;SDS011;9776;50.798;6.430;2022-10-16T14:27:24;0.60;;;0.60;;
19285;SDS011;9776;50.798;6.430;2022-10-16T14:30:08;0.60;;;0.60;;
19285;SDS011;9776;50.798;6.430;2022-10-16T14:32:40;0.80;;;0.80;;
19285;SDS011;9776;50.798;6.430;2022-10-16T14:35:21;0.80;;;0.80;;
19285;SDS011;9776;50.798;6.430;2022-10-16T14:37:51;0.60;;;0.60;;
19285;SDS011;9776;50.798;6.430;2022-10-16T14:40:18;0.80;;;0.80;;
19285;SDS011;9776;50.798;6.430;2022-10-16T14:42:48;0.85;;;0.85;;
19285;SDS011;9776;50.798;6.430;2022-10-16T14:45:19;1.75;;;0.70;;
19285;SDS011;9776;50.798;6.430;2022-10-16T14:47:48;0.70;;;0.70;;
19285;SDS011;9776;50.798;6.430;2022-10-16T14:50:16;0.80;;;0.80;;
19285;SDS011;9776;50.798;6.430;2022-10-16T14:52:43;0.60;;;0.60;;
19285;SDS011;9776;50.798;6.430;2022-10-16T14:55:10;0.85;;;0.85;;
19285;SDS011;9776;50.798;6.430;2022-10-16T14:57:37;0.70;;;0.70;;
19285;SDS011;9776;50.798;6.430;2022-10-16T15:00:08;1.00;;;1.00;;
19285;SDS011;9776;50.798;6.430;2022-10-16T15:02:42;0.90;;;0.90;;
19285;SDS011;9776;50.798;6.430;2022-10-16T15:05:14;0.80;;;0.80;;
19285;SDS011;9776;50.798;6.430;2022-10-16T15:07:43;0.68;;;0.68;;
19285;SDS011;9776;50.798;6.430;2022-10-16T15:10:10;0.82;;;0.82;;
19285;SDS011;9776;50.798;6.430;2022-10-16T15:12:37;0.77;;;0.77;;
19285;SDS011;9776;50.798;6.430;2022-10-16T15:15:15;1.00;;;1.00;;
19285;SDS011;9776;50.798;6.430;2022-10-16T15:17:59;1.05;;;1.05;;
19285;SDS011;9776;50.798;6.430;2022-10-16T15:20:27;1.10;;;1.10;;